createdAt,value
2022-07-25T00:02:08.819Z,22.1
2022-07-25T00:08:01.125Z,22.1
2022-07-25T00:13:38.611Z,21.9
2022-07-25T00:19:17.510Z,21.9
2022-07-25T00:24:53.784Z,21.9
2022-07-25T00:30:36.232Z,21.8
2022-07-25T00:36:13.581Z,21.7
2022-07-25T00:41:53.286Z,21.6
2022-07-25T00:47:35.997Z,21.6
2022-07-25T00:52:43.570Z,21.5
2022-07-25T00:58:22.047Z,21.4
2022-07-25T01:04:01.823Z,21.3
2022-07-25T01:09:41.702Z,21.3
2022-07-25T01:20:42.650Z,21.1
2022-07-25T01:25:48.489Z,21
2022-07-25T01:31:37.667Z,20.9
2022-07-25T01:37:10.468Z,20.9
2022-07-25T01:42:51.755Z,20.8
2022-07-25T01:48:29.061Z,20.7
2022-07-25T01:54:14.136Z,20.6
2022-07-25T02:00:10.162Z,20.6
2022-07-25T02:05:49.601Z,20.5
2022-07-25T02:11:27.700Z,20.4
2022-07-25T02:17:07.615Z,20.4
2022-07-25T02:22:44.819Z,20.3
2022-07-25T02:28:21.499Z,20.2
2022-07-25T02:33:58.812Z,20.1
2022-07-25T02:39:43.122Z,20
2022-07-25T02:45:20.992Z,19.9
2022-07-25T02:50:59.350Z,19.9
2022-07-25T02:57:11.436Z,19.8
2022-07-25T03:02:49.381Z,19.7
2022-07-25T03:08:13.013Z,19.6
2022-07-25T03:13:51.892Z,19.6
2022-07-25T03:19:29.506Z,19.5
2022-07-25T03:25:15.537Z,19.4
2022-07-25T03:30:57.332Z,19.4
2022-07-25T03:36:34.318Z,19.3
2022-07-25T03:42:13.172Z,19.3
2022-07-25T03:47:58.346Z,19.3
2022-07-25T03:52:59.901Z,19.3
2022-07-25T03:58:44.811Z,19.2
2022-07-25T04:04:23.309Z,19.2
2022-07-25T04:10:02.359Z,19.2
2022-07-25T04:15:39.454Z,19.2
2022-07-25T04:21:36.809Z,19.3
2022-07-25T04:27:17.671Z,19.4
2022-07-25T04:33:01.373Z,19.6
2022-07-25T04:38:28.541Z,19.8
2022-07-25T04:44:05.643Z,20.1
2022-07-25T04:49:44.355Z,20.4
2022-07-25T04:55:11.593Z,20.8
2022-07-25T05:00:50.605Z,21.6
2022-07-25T05:06:15.578Z,22.4
2022-07-25T05:11:40.572Z,23.3
2022-07-25T05:17:20.334Z,24.2
2022-07-25T05:23:06.311Z,25.3
2022-07-25T05:28:28.404Z,26.5
2022-07-25T05:39:16.848Z,29.1
2022-07-25T05:44:53.825Z,30.6
2022-07-25T05:50:31.903Z,27.3
2022-07-25T05:56:11.584Z,33.8
2022-07-25T06:01:54.937Z,33.8
2022-07-25T06:07:35.171Z,34.3
2022-07-25T06:13:26.845Z,34.9
2022-07-25T06:19:16.878Z,35.5
2022-07-25T06:24:55.220Z,36.1
2022-07-25T06:30:57.183Z,36.9
2022-07-25T06:36:34.985Z,37.6
2022-07-25T06:42:16.329Z,38.2
2022-07-25T06:47:54.758Z,38.9
2022-07-25T06:53:18.866Z,39.6
2022-07-25T06:59:00.597Z,40.3
2022-07-25T07:04:44.352Z,41
2022-07-25T07:10:22.676Z,41.7
2022-07-25T07:16:05.483Z,42.4
2022-07-25T07:21:45.489Z,43.1
2022-07-25T07:27:57.238Z,43.8
2022-07-25T07:34:09.561Z,44.6
2022-07-25T07:39:58.665Z,45.2
2022-07-25T07:45:38.073Z,45.8
2022-07-25T07:51:04.675Z,46.4
2022-07-25T07:56:27.078Z,47
2022-07-25T08:02:03.753Z,47.6
2022-07-25T15:17:26.896Z,57.9
2022-07-25T15:23:33.144Z,57.4
2022-07-25T15:30:18.154Z,56.8
2022-07-25T15:35:58.952Z,56.3
2022-07-25T15:41:23.540Z,55.9
2022-07-25T15:47:33.772Z,55.3
2022-07-25T15:53:14.630Z,54.8
2022-07-25T15:58:41.850Z,54.3
2022-07-25T16:04:27.319Z,53.9
2022-07-25T16:10:07.673Z,53.4
2022-07-25T16:15:51.284Z,51.4
2022-07-25T16:21:31.295Z,49.9
2022-07-25T16:27:12.181Z,48.4
2022-07-25T16:32:57.394Z,46.9
2022-07-25T16:38:42.390Z,45.5
2022-07-25T16:44:26.374Z,44.2
2022-07-25T16:50:11.536Z,42.9
2022-07-25T16:55:56.276Z,41.5
2022-07-25T17:01:43.646Z,39.8
2022-07-25T17:07:23.455Z,38.7
2022-07-25T17:13:07.398Z,37.8
2022-07-25T17:18:47.218Z,36.9
2022-07-25T17:24:32.262Z,36.1
2022-07-25T17:30:13.163Z,35.3
2022-07-25T17:35:56.725Z,34.6
2022-07-25T17:41:44.887Z,33.8
2022-07-25T17:47:09.779Z,33.1
2022-07-25T17:52:51.601Z,32.4
2022-07-25T17:58:32.955Z,31.6
2022-07-25T18:04:20.363Z,30.9
2022-07-25T18:09:59.400Z,30.1
2022-07-25T18:15:40.066Z,29.5
2022-07-25T18:21:20.451Z,28.9
2022-07-25T18:27:04.588Z,28.4
2022-07-25T18:32:48.387Z,28
2022-07-25T18:38:28.334Z,27.5
2022-07-25T18:44:45.048Z,27.1
2022-07-25T18:50:31.339Z,26.7
2022-07-25T18:56:13.152Z,26.4
2022-07-25T19:01:53.645Z,26.1
2022-07-25T19:07:34.164Z,25.8
2022-07-25T19:13:26.932Z,25.6
2022-07-25T19:19:26.366Z,25.3
2022-07-25T19:25:07.604Z,25.1
